createdAt,value
2018-05-29T00:00:29.285Z,40.55
2018-05-29T00:01:00.953Z,42.15
2018-05-29T00:01:32.599Z,41.65
2018-05-29T00:02:04.241Z,40.42
2018-05-29T00:02:35.929Z,42.97
2018-05-29T00:03:07.567Z,43.20
2018-05-29T00:03:39.187Z,41.35
2018-05-29T00:04:10.856Z,41.92
2018-05-29T00:04:42.499Z,41.40
2018-05-29T00:05:14.177Z,44.67
2018-05-29T00:05:45.845Z,45.05
2018-05-29T00:06:17.495Z,43.20
2018-05-29T00:06:49.160Z,45.88
2018-05-29T00:07:20.813Z,42.10
2018-05-29T00:07:52.485Z,42.88
2018-05-29T00:08:24.131Z,41.83
2018-05-29T00:08:55.777Z,42.40
2018-05-29T00:09:27.436Z,41.42
2018-05-29T00:09:59.100Z,41.58
2018-05-29T00:10:30.759Z,46.83
2018-05-29T00:11:02.433Z,39.78
2018-05-29T00:11:34.073Z,41.20
2018-05-29T00:12:05.756Z,41.47
2018-05-29T00:12:37.399Z,45.20
2018-05-29T00:13:09.052Z,44.10
2018-05-29T00:13:40.686Z,44.60
2018-05-29T00:14:12.318Z,43.38
2018-05-29T00:14:43.971Z,47.45
2018-05-29T00:15:15.607Z,42.72
2018-05-29T00:15:47.239Z,49.95
2018-05-29T00:16:18.875Z,43.33
2018-05-29T00:16:50.511Z,42.88
2018-05-29T00:17:22.167Z,47.45
2018-05-29T00:17:53.805Z,45.58
2018-05-29T00:18:25.471Z,46.10
2018-05-29T00:18:57.131Z,46.95
2018-05-29T00:19:28.811Z,46.78
2018-05-29T00:20:00.476Z,42.38
2018-05-29T00:20:32.128Z,48.10
2018-05-29T00:21:03.767Z,44.07
2018-05-29T00:21:35.419Z,44.40
2018-05-29T00:22:07.061Z,44.20
2018-05-29T00:22:38.690Z,45.20
2018-05-29T00:23:10.348Z,45.12
2018-05-29T00:23:41.987Z,41.63
2018-05-29T00:24:13.653Z,44.60
2018-05-29T00:24:45.341Z,42.83
2018-05-29T00:25:17.016Z,46.03
2018-05-29T00:25:48.641Z,46.13
2018-05-29T00:26:20.297Z,47.28
2018-05-29T00:26:51.937Z,43.83
2018-05-29T00:27:23.580Z,42.62
2018-05-29T00:27:55.203Z,45.33
2018-05-29T00:28:26.861Z,46.75
2018-05-29T00:28:58.509Z,44.95
2018-05-29T00:29:30.153Z,46.17
2018-05-29T00:30:01.841Z,51.60
2018-05-29T00:30:33.516Z,44.72
2018-05-29T00:31:05.185Z,48.40
2018-05-29T00:31:36.819Z,46.33
2018-05-29T00:32:08.464Z,47.67
2018-05-29T00:32:40.117Z,46.55
2018-05-29T00:33:11.747Z,45.45
2018-05-29T00:33:43.377Z,45.78
2018-05-29T00:34:15.018Z,47.03
2018-05-29T00:34:46.661Z,43.97
2018-05-29T00:35:19.001Z,47.70
2018-05-29T00:35:50.671Z,43.60
2018-05-29T00:36:22.308Z,48.42
2018-05-29T00:36:53.927Z,46.58
2018-05-29T00:37:25.578Z,43.70
2018-05-29T00:37:57.215Z,45.03
2018-05-29T00:38:28.883Z,45.05
2018-05-29T00:39:00.514Z,47.10
2018-05-29T00:39:32.189Z,46.13
2018-05-29T00:40:04.745Z,48.40
2018-05-29T00:40:36.381Z,46.65
2018-05-29T00:41:08.059Z,46.53
2018-05-29T00:41:39.698Z,46.55
2018-05-29T00:42:11.329Z,49.47
2018-05-29T00:42:42.969Z,47.15
2018-05-29T00:43:14.637Z,43.75
2018-05-29T00:43:46.309Z,48.50
2018-05-29T00:44:17.947Z,47.30
2018-05-29T00:44:49.592Z,45.33
2018-05-29T00:45:21.236Z,46.25
2018-05-29T00:45:52.903Z,44.83
2018-05-29T00:46:24.581Z,45.03
2018-05-29T00:46:56.225Z,45.55
2018-05-29T00:47:27.877Z,46.35
2018-05-29T00:47:59.512Z,48.03
2018-05-29T00:48:31.155Z,47.33
2018-05-29T00:49:02.891Z,44.08
2018-05-29T00:49:34.555Z,44.55
2018-05-29T00:50:06.227Z,45.85
2018-05-29T00:50:37.886Z,44.65
2018-05-29T00:51:09.541Z,46.45
2018-05-29T00:51:41.191Z,44.83
2018-05-29T00:52:12.851Z,48.87
2018-05-29T00:52:44.491Z,45.40
2018-05-29T00:53:16.125Z,43.72
2018-05-29T00:53:48.433Z,47.67
2018-05-29T00:54:20.106Z,47.92
2018-05-29T00:55:10.181Z,47.05
2018-05-29T00:55:41.763Z,44.72
2018-05-29T00:56:13.403Z,46.63
2018-05-29T00:56:45.751Z,41.00
2018-05-29T00:57:17.399Z,46.70
2018-05-29T00:57:49.044Z,45.03
2018-05-29T00:58:20.717Z,44.53
2018-05-29T00:58:52.379Z,46.20
2018-05-29T00:59:24.054Z,44.20
2018-05-29T00:59:55.737Z,43.90
2018-05-29T01:00:27.401Z,48.75
2018-05-29T01:00:59.851Z,43.63
2018-05-29T01:01:31.470Z,44.65
2018-05-29T01:02:03.123Z,47.05
2018-05-29T01:02:34.797Z,47.40
2018-05-29T01:03:06.431Z,42.72
2018-05-29T01:03:38.097Z,44.95
2018-05-29T01:04:09.769Z,42.17
2018-05-29T01:04:41.417Z,45.45
2018-05-29T01:05:13.061Z,42.90
2018-05-29T01:05:44.719Z,46.95
2018-05-29T01:06:16.383Z,43.92
2018-05-29T01:06:48.026Z,43.67
2018-05-29T01:07:19.699Z,47.22
2018-05-29T01:07:51.381Z,44.15
2018-05-29T01:08:23.029Z,45.00
2018-05-29T01:08:54.681Z,43.97
2018-05-29T01:09:26.310Z,43.13
2018-05-29T01:09:57.984Z,44.50
2018-05-29T01:10:29.627Z,43.28
2018-05-29T01:11:01.271Z,41.75
2018-05-29T01:11:32.977Z,41.60
2018-05-29T01:12:04.635Z,43.53
2018-05-29T01:12:36.354Z,42.75
2018-05-29T01:13:07.969Z,42.78
2018-05-29T01:13:39.611Z,47.17
2018-05-29T01:14:11.247Z,46.35
2018-05-29T01:14:42.887Z,46.00
2018-05-29T01:15:14.563Z,42.88
2018-05-29T01:15:46.213Z,42.25
2018-05-29T01:16:17.895Z,44.88
2018-05-29T01:16:49.561Z,44.28
2018-05-29T01:17:21.215Z,44.88
2018-05-29T01:17:52.883Z,46.47
2018-05-29T01:18:24.531Z,45.80
2018-05-29T01:18:56.167Z,43.00
2018-05-29T01:19:27.826Z,46.00
2018-05-29T01:19:59.469Z,40.63
2018-05-29T01:20:31.111Z,44.65
2018-05-29T01:21:02.777Z,44.80
2018-05-29T01:21:34.433Z,44.28
2018-05-29T01:22:06.071Z,44.22
2018-05-29T01:22:37.700Z,45.78
2018-05-29T01:23:09.343Z,44.25
2018-05-29T01:23:40.971Z,41.40
2018-05-29T01:24:12.638Z,45.58
2018-05-29T01:24:44.283Z,43.42
2018-05-29T01:25:15.899Z,46.55
2018-05-29T01:25:47.531Z,45.05
2018-05-29T01:26:19.241Z,46.72
2018-05-29T01:26:50.882Z,43.53
2018-05-29T01:27:22.550Z,45.83
2018-05-29T01:27:54.202Z,44.97
2018-05-29T01:28:25.855Z,46.53
2018-05-29T01:28:57.527Z,48.17
2018-05-29T01:29:29.207Z,45.63
2018-05-29T01:30:00.852Z,43.97
2018-05-29T01:30:32.525Z,43.95
2018-05-29T01:31:04.182Z,44.25
2018-05-29T01:31:35.823Z,46.27
2018-05-29T01:32:07.527Z,46.22
2018-05-29T01:32:39.205Z,49.38
2018-05-29T01:33:10.873Z,48.60
2018-05-29T01:33:43.107Z,44.22
2018-05-29T01:34:14.755Z,43.58
2018-05-29T01:34:46.407Z,47.03
2018-05-29T01:35:18.053Z,45.60
2018-05-29T01:35:49.719Z,45.20
2018-05-29T01:36:21.409Z,43.85
2018-05-29T01:36:53.030Z,44.60
2018-05-29T01:37:24.683Z,46.22
2018-05-29T01:37:56.327Z,46.67
2018-05-29T01:38:27.993Z,42.38
2018-05-29T01:38:59.619Z,45.72
2018-05-29T01:39:31.265Z,45.60
2018-05-29T01:40:02.965Z,46.17
2018-05-29T01:40:34.639Z,44.55
2018-05-29T01:41:06.270Z,43.35
2018-05-29T01:41:37.923Z,43.87
2018-05-29T01:42:09.573Z,42.10
2018-05-29T01:42:41.246Z,46.53
2018-05-29T01:43:12.885Z,47.45
2018-05-29T01:43:44.556Z,42.10
2018-05-29T01:44:16.213Z,45.58
2018-05-29T01:44:47.854Z,43.87
2018-05-29T01:45:19.495Z,45.60
2018-05-29T01:45:51.191Z,44.35
2018-05-29T01:46:22.849Z,44.53
2018-05-29T01:46:54.511Z,48.17
2018-05-29T01:47:26.171Z,46.13
2018-05-29T01:47:57.821Z,44.75
2018-05-29T01:48:29.479Z,44.50
2018-05-29T01:49:01.139Z,44.80
2018-05-29T01:49:33.128Z,45.70
2018-05-29T01:50:04.769Z,47.67
2018-05-29T01:50:36.413Z,44.58
2018-05-29T01:51:08.063Z,46.92
2018-05-29T01:51:39.714Z,46.15
2018-05-29T01:52:11.381Z,46.83
2018-05-29T01:52:43.063Z,47.60
2018-05-29T01:53:14.739Z,45.83
2018-05-29T01:53:46.379Z,49.20
2018-05-29T01:54:18.029Z,47.10
2018-05-29T01:54:49.665Z,49.03
2018-05-29T01:55:21.375Z,46.67
2018-05-29T01:55:53.039Z,47.45
2018-05-29T01:56:24.675Z,47.33
2018-05-29T01:56:56.319Z,48.15
2018-05-29T01:57:27.981Z,44.03
2018-05-29T01:57:59.615Z,48.28
2018-05-29T01:58:31.265Z,45.88
2018-05-29T01:59:02.977Z,48.70
2018-05-29T01:59:34.631Z,45.88
2018-05-29T02:00:06.305Z,48.90
2018-05-29T02:00:37.939Z,48.53
2018-05-29T02:01:09.571Z,47.22
2018-05-29T02:01:41.247Z,47.78
2018-05-29T02:02:12.895Z,49.28
2018-05-29T02:02:44.530Z,47.38
2018-05-29T02:03:16.165Z,51.13
2018-05-29T02:03:48.551Z,47.20
2018-05-29T02:04:20.305Z,47.13
2018-05-29T02:04:51.901Z,44.38
2018-05-29T02:05:23.567Z,46.65
2018-05-29T02:05:55.222Z,50.55
2018-05-29T02:06:26.889Z,46.83
2018-05-29T02:06:58.531Z,48.08
2018-05-29T02:07:30.161Z,46.08
2018-05-29T02:08:01.803Z,43.95
2018-05-29T02:08:33.451Z,47.00
2018-05-29T02:09:05.134Z,47.78
2018-05-29T02:09:36.765Z,49.00
2018-05-29T02:10:08.431Z,46.97
2018-05-29T02:10:40.071Z,48.35
2018-05-29T02:11:11.737Z,50.67
2018-05-29T02:11:43.393Z,46.35
2018-05-29T02:12:15.087Z,49.08
2018-05-29T02:12:46.729Z,47.00
2018-05-29T02:13:18.377Z,51.15
2018-05-29T02:13:50.027Z,49.58
2018-05-29T02:14:21.675Z,53.20
2018-05-29T02:14:54.369Z,49.65
2018-05-29T02:15:25.999Z,54.63
2018-05-29T02:15:57.661Z,50.28
2018-05-29T02:16:29.307Z,51.60
2018-05-29T02:17:00.968Z,51.05
2018-05-29T02:17:32.614Z,52.72
2018-05-29T02:18:04.291Z,50.67
2018-05-29T02:18:35.917Z,53.30
2018-05-29T02:19:07.565Z,55.05
2018-05-29T02:19:39.224Z,53.00
2018-05-29T02:20:10.897Z,56.45
2018-05-29T02:20:42.589Z,51.17
2018-05-29T02:21:14.239Z,52.58
2018-05-29T02:21:45.877Z,55.63
2018-05-29T02:22:17.581Z,52.28
2018-05-29T02:22:49.239Z,53.50
2018-05-29T02:23:20.891Z,53.60
2018-05-29T02:23:52.539Z,53.92
2018-05-29T02:24:24.165Z,54.80
2018-05-29T02:24:56.449Z,54.92
2018-05-29T02:25:35.539Z,53.05
2018-05-29T02:26:07.199Z,56.20
2018-05-29T02:26:38.853Z,56.20
2018-05-29T02:27:10.507Z,52.25
2018-05-29T02:27:42.159Z,53.45
2018-05-29T02:28:13.836Z,52.67
2018-05-29T02:28:45.447Z,53.13
2018-05-29T02:29:17.991Z,54.83
2018-05-29T02:29:49.636Z,52.47
2018-05-29T02:30:21.280Z,55.35
2018-05-29T02:30:52.931Z,53.60
2018-05-29T02:31:24.554Z,54.15
2018-05-29T02:31:58.373Z,53.10
2018-05-29T02:32:31.064Z,51.42
2018-05-29T02:33:02.721Z,54.47
2018-05-29T02:33:34.373Z,51.40
2018-05-29T02:34:06.039Z,51.30
2018-05-29T02:34:40.523Z,53.78
2018-05-29T02:35:12.173Z,51.93
2018-05-29T02:35:43.880Z,53.60
2018-05-29T02:36:15.521Z,49.90
2018-05-29T02:36:47.183Z,50.20
2018-05-29T02:37:18.847Z,51.65
2018-05-29T02:37:50.498Z,51.15
2018-05-29T02:38:22.185Z,54.03
2018-05-29T02:38:53.812Z,50.03
2018-05-29T02:39:25.517Z,51.10
2018-05-29T02:39:57.161Z,53.97
2018-05-29T02:40:28.814Z,49.67
2018-05-29T02:41:00.459Z,53.03
2018-05-29T02:41:33.044Z,50.80
2018-05-29T02:42:06.575Z,54.72
2018-05-29T02:42:39.051Z,53.92
2018-05-29T02:43:10.717Z,51.58
2018-05-29T02:43:42.383Z,53.90
2018-05-29T02:44:14.017Z,48.83
2018-05-29T02:44:45.666Z,52.40
2018-05-29T02:45:17.313Z,51.58
2018-05-29T02:45:50.872Z,52.80
2018-05-29T02:46:22.541Z,49.80
2018-05-29T02:46:54.173Z,51.25
2018-05-29T02:47:25.803Z,46.78
2018-05-29T02:47:57.762Z,48.40
2018-05-29T02:48:29.427Z,51.55
2018-05-29T02:49:01.065Z,49.58
2018-05-29T02:49:32.711Z,52.85
2018-05-29T02:50:04.373Z,54.45
2018-05-29T02:50:36.035Z,49.05
2018-05-29T02:51:07.710Z,51.83
2018-05-29T02:51:39.397Z,48.85
2018-05-29T02:52:11.039Z,47.25
2018-05-29T02:52:42.667Z,52.67
2018-05-29T02:53:14.321Z,52.42
2018-05-29T02:53:45.974Z,50.42
2018-05-29T02:54:17.617Z,51.88
2018-05-29T02:54:49.263Z,50.72
2018-05-29T02:55:20.888Z,52.92
2018-05-29T02:55:52.513Z,54.08
2018-05-29T02:56:24.236Z,49.17
2018-05-29T02:56:55.921Z,50.90
2018-05-29T02:57:27.575Z,49.28
2018-05-29T02:57:59.220Z,52.60
2018-05-29T02:58:30.871Z,51.42
2018-05-29T02:59:02.555Z,50.08
2018-05-29T02:59:34.197Z,49.17
2018-05-29T03:00:05.885Z,48.13
2018-05-29T03:00:37.521Z,48.72
2018-05-29T03:01:09.175Z,49.53
2018-05-29T03:01:40.816Z,50.65
2018-05-29T03:02:12.522Z,48.15
2018-05-29T03:02:44.185Z,52.05
2018-05-29T03:03:15.807Z,50.63
2018-05-29T03:03:47.467Z,49.17
2018-05-29T03:04:19.113Z,46.20
2018-05-29T03:04:52.272Z,48.87
2018-05-29T03:05:23.925Z,48.85
2018-05-29T03:05:55.591Z,52.62
2018-05-29T03:06:27.233Z,51.15
2018-05-29T03:06:58.882Z,48.00
2018-05-29T03:07:30.559Z,51.08
2018-05-29T03:08:04.753Z,51.72
2018-05-29T03:08:36.439Z,46.53
2018-05-29T03:09:08.096Z,48.75
2018-05-29T03:09:39.767Z,53.65
2018-05-29T03:10:11.351Z,51.95
2018-05-29T03:10:43.015Z,50.97
2018-05-29T03:11:14.675Z,51.97
2018-05-29T03:11:46.351Z,51.55
2018-05-29T03:12:17.995Z,48.83
2018-05-29T03:12:49.677Z,48.38
2018-05-29T03:13:21.341Z,49.38
2018-05-29T03:13:52.980Z,49.97
2018-05-29T03:14:26.063Z,50.78
2018-05-29T03:14:57.725Z,48.87
2018-05-29T03:15:29.409Z,51.65
2018-05-29T03:16:01.083Z,47.72
2018-05-29T03:16:32.731Z,53.80
2018-05-29T03:17:04.418Z,49.83
2018-05-29T03:17:36.092Z,46.65
2018-05-29T03:18:07.763Z,51.05
2018-05-29T03:18:39.445Z,50.80
2018-05-29T03:19:11.099Z,50.60
2018-05-29T03:19:42.761Z,48.80
2018-05-29T03:20:14.427Z,48.67
2018-05-29T03:20:46.073Z,51.33
2018-05-29T03:21:17.693Z,50.70
2018-05-29T03:21:49.359Z,54.88
2018-05-29T03:22:21.033Z,52.78
2018-05-29T03:22:52.726Z,53.40
2018-05-29T03:23:24.381Z,47.85
2018-05-29T03:23:56.063Z,51.65
2018-05-29T03:24:27.711Z,53.87
2018-05-29T03:24:59.349Z,47.70
2018-05-29T03:25:30.981Z,52.22
2018-05-29T03:26:03.523Z,51.67
2018-05-29T03:26:35.311Z,52.55
2018-05-29T03:27:06.927Z,51.37
2018-05-29T03:27:38.585Z,51.45
2018-05-29T03:28:10.254Z,49.22
2018-05-29T03:28:41.905Z,48.13
2018-05-29T03:29:13.569Z,50.67
2018-05-29T03:29:45.241Z,45.55
2018-05-29T03:30:16.897Z,49.00
2018-05-29T03:30:48.568Z,48.90
2018-05-29T03:31:20.252Z,53.05
2018-05-29T03:31:51.875Z,52.47
2018-05-29T03:32:23.524Z,52.33
2018-05-29T03:32:56.008Z,49.80
2018-05-29T03:33:27.694Z,53.25
2018-05-29T03:33:59.339Z,49.13
2018-05-29T03:34:31.066Z,53.70
2018-05-29T03:35:02.721Z,52.85
2018-05-29T03:35:34.347Z,50.03
2018-05-29T03:36:05.978Z,53.13
2018-05-29T03:36:37.645Z,48.65
2018-05-29T03:37:09.295Z,52.00
2018-05-29T03:37:40.951Z,52.58
2018-05-29T03:38:12.619Z,50.38
2018-05-29T03:38:44.273Z,49.40
2018-05-29T03:39:15.925Z,47.58
2018-05-29T03:39:47.553Z,57.90
2018-05-29T03:40:19.197Z,51.33
2018-05-29T03:40:51.273Z,51.75
2018-05-29T03:41:22.955Z,50.75
2018-05-29T03:41:54.606Z,53.92
2018-05-29T03:42:26.267Z,50.03
2018-05-29T03:42:57.903Z,51.85
2018-05-29T03:43:29.543Z,51.85
2018-05-29T03:44:01.218Z,51.65
2018-05-29T03:44:32.911Z,54.45
2018-05-29T03:45:04.567Z,53.03
2018-05-29T03:45:36.204Z,50.12
2018-05-29T03:46:07.854Z,54.80
2018-05-29T03:46:39.507Z,55.12
2018-05-29T03:47:11.139Z,53.03
2018-05-29T03:47:42.791Z,49.80
2018-05-29T03:48:14.463Z,51.20
2018-05-29T03:48:46.122Z,51.67
2018-05-29T03:49:17.839Z,55.10
2018-05-29T03:49:49.487Z,55.15
2018-05-29T03:50:21.139Z,51.67
2018-05-29T03:50:52.787Z,50.63
2018-05-29T03:51:24.505Z,56.30
2018-05-29T03:51:56.144Z,54.45
2018-05-29T03:52:27.765Z,51.72
2018-05-29T03:52:59.429Z,56.60
2018-05-29T03:53:31.075Z,53.63
2018-05-29T03:54:02.759Z,53.53
2018-05-29T03:54:34.407Z,50.67
2018-05-29T03:55:06.319Z,49.55
2018-05-29T03:55:37.973Z,55.80
2018-05-29T03:56:09.608Z,55.83
2018-05-29T03:56:41.235Z,52.45
2018-05-29T03:57:13.254Z,51.03
2018-05-29T03:57:44.911Z,53.92
2018-05-29T03:58:16.557Z,54.95
2018-05-29T03:58:48.183Z,53.63
2018-05-29T03:59:19.813Z,55.50
2018-05-29T03:59:53.187Z,50.70
2018-05-29T04:00:24.837Z,54.50
2018-05-29T04:00:56.478Z,50.55
2018-05-29T04:01:28.141Z,50.15
2018-05-29T04:01:59.817Z,51.10
2018-05-29T04:02:31.477Z,50.85
2018-05-29T04:03:03.143Z,53.65
2018-05-29T04:03:34.777Z,51.30
2018-05-29T04:04:06.507Z,58.13
2018-05-29T04:04:38.203Z,51.80
2018-05-29T04:05:09.853Z,49.25
2018-05-29T04:05:41.555Z,52.38
2018-05-29T04:06:13.201Z,52.15
2018-05-29T04:06:51.745Z,53.50
2018-05-29T04:07:23.437Z,52.50
2018-05-29T04:07:55.091Z,52.00
2018-05-29T04:08:26.750Z,49.30
2018-05-29T04:08:58.395Z,49.50
2018-05-29T04:09:30.301Z,46.65
2018-05-29T04:10:02.217Z,49.15
2018-05-29T04:10:33.949Z,48.05
2018-05-29T04:20:50.621Z,46.55
2018-05-29T04:21:22.334Z,47.10
2018-05-29T04:21:53.961Z,48.58
2018-05-29T04:22:25.638Z,47.35
2018-05-29T04:22:57.288Z,48.08
2018-05-29T04:23:28.905Z,47.30
2018-05-29T04:24:00.561Z,47.03
2018-05-29T04:24:32.797Z,46.88
2018-05-29T04:25:05.020Z,45.55
2018-05-29T04:25:36.683Z,48.83
2018-05-29T04:26:08.348Z,44.50
2018-05-29T04:26:39.999Z,45.60
2018-05-29T04:27:11.627Z,46.10
2018-05-29T04:27:43.293Z,46.15
2018-05-29T04:28:14.921Z,46.88
2018-05-29T04:28:46.549Z,45.60
2018-05-29T04:29:18.185Z,48.47
2018-05-29T04:29:49.833Z,47.83
2018-05-29T04:30:21.467Z,49.45
2018-05-29T04:30:53.099Z,44.45
2018-05-29T04:31:24.740Z,46.10
2018-05-29T04:31:56.429Z,44.65
2018-05-29T04:32:28.077Z,49.08
2018-05-29T04:32:59.699Z,49.77
2018-05-29T04:33:32.182Z,46.88
2018-05-29T04:34:04.822Z,46.60
2018-05-29T04:34:37.277Z,48.13
2018-05-29T04:35:08.927Z,45.55
2018-05-29T04:35:40.571Z,45.28
2018-05-29T04:36:12.269Z,52.65
2018-05-29T04:36:44.607Z,43.40
2018-05-29T04:37:16.267Z,53.35
2018-05-29T04:37:47.943Z,46.53
2018-05-29T04:38:19.652Z,48.15
2018-05-29T04:38:51.311Z,46.85
2018-05-29T04:39:22.927Z,49.25
2018-05-29T04:39:54.568Z,46.47
2018-05-29T04:40:26.231Z,45.72
2018-05-29T04:40:57.897Z,48.78
2018-05-29T04:41:29.544Z,49.97
2018-05-29T04:42:01.223Z,45.85
2018-05-29T04:42:32.868Z,50.45
2018-05-29T04:43:05.452Z,50.20
2018-05-29T04:43:38.133Z,46.72
2018-05-29T04:44:11.817Z,49.17
2018-05-29T04:44:43.447Z,47.13
2018-05-29T04:45:15.113Z,52.05
2018-05-29T04:45:48.007Z,52.53
2018-05-29T04:46:19.643Z,47.40
2018-05-29T04:46:51.275Z,46.63
2018-05-29T04:47:22.933Z,49.40
2018-05-29T04:47:54.579Z,49.90
2018-05-29T04:48:27.201Z,51.28
2018-05-29T04:48:58.845Z,50.58
2018-05-29T04:49:30.565Z,49.70
2018-05-29T04:50:02.236Z,49.70
2018-05-29T04:50:33.881Z,49.30
2018-05-29T04:51:05.509Z,49.67
2018-05-29T04:51:37.155Z,44.17
2018-05-29T04:52:08.791Z,49.95
2018-05-29T04:52:40.415Z,48.55
2018-05-29T04:53:12.066Z,49.95
2018-05-29T04:53:43.725Z,49.22
2018-05-29T04:54:15.347Z,51.05
2018-05-29T04:54:46.999Z,48.25
2018-05-29T04:55:18.647Z,49.40
2018-05-29T04:55:50.277Z,50.72
2018-05-29T04:56:21.919Z,49.22
2018-05-29T04:56:53.553Z,50.88
2018-05-29T04:57:25.191Z,49.45
2018-05-29T04:57:56.840Z,51.45
2018-05-29T04:58:28.515Z,50.67
2018-05-29T04:59:00.171Z,49.58
2018-05-29T04:59:31.827Z,50.03
2018-05-29T05:00:03.493Z,48.58
2018-05-29T05:00:35.141Z,53.22
2018-05-29T05:01:06.777Z,48.13
2018-05-29T05:01:38.443Z,53.00
2018-05-29T05:02:10.099Z,50.53
2018-05-29T05:02:41.749Z,49.45
2018-05-29T05:03:13.395Z,47.60
2018-05-29T05:03:45.083Z,48.45
2018-05-29T05:04:16.731Z,49.08
2018-05-29T05:04:48.385Z,49.92
2018-05-29T05:05:20.994Z,49.53
2018-05-29T05:05:52.664Z,52.50
2018-05-29T05:06:24.321Z,50.55
2018-05-29T05:06:55.965Z,52.20
2018-05-29T05:07:27.596Z,52.88
2018-05-29T05:07:59.241Z,51.40
2018-05-29T05:08:30.887Z,49.50
2018-05-29T05:09:02.695Z,48.50
2018-05-29T05:09:34.283Z,47.17
2018-05-29T05:10:05.927Z,48.28
2018-05-29T05:10:37.603Z,50.10
2018-05-29T05:11:09.242Z,49.33
2018-05-29T05:11:40.870Z,47.28
2018-05-29T05:12:12.527Z,50.40
2018-05-29T05:12:44.167Z,52.30
2018-05-29T05:13:15.849Z,52.53
2018-05-29T05:13:47.511Z,48.87
2018-05-29T05:14:19.149Z,51.95
2018-05-29T05:14:50.805Z,49.08
2018-05-29T05:15:22.465Z,52.85
2018-05-29T05:15:54.115Z,51.40
2018-05-29T05:16:25.771Z,48.70
2018-05-29T05:16:57.399Z,52.30
2018-05-29T05:17:30.755Z,47.17
2018-05-29T05:18:02.399Z,53.25
2018-05-29T05:18:34.060Z,48.05
2018-05-29T05:19:05.697Z,50.28
2018-05-29T05:19:37.935Z,48.50
2018-05-29T05:20:09.567Z,48.87
2018-05-29T05:20:41.242Z,51.13
2018-05-29T05:21:12.919Z,49.67
2018-05-29T05:21:44.891Z,49.17
2018-05-29T05:22:17.577Z,48.83
2018-05-29T05:22:49.219Z,49.25
2018-05-29T05:23:20.870Z,47.93
2018-05-29T05:23:52.491Z,49.33
2018-05-29T05:24:24.141Z,47.10
2018-05-29T05:24:55.789Z,48.35
2018-05-29T05:25:27.435Z,49.45
2018-05-29T05:25:59.735Z,46.95
2018-05-29T05:26:31.417Z,48.95
2018-05-29T05:27:03.071Z,43.13
2018-05-29T05:27:34.761Z,43.05
2018-05-29T05:28:06.441Z,48.30
2018-05-29T05:28:38.099Z,43.90
2018-05-29T05:29:09.739Z,44.10
2018-05-29T05:29:41.411Z,42.95
2018-05-29T05:30:13.053Z,44.35
2018-05-29T05:30:44.700Z,46.05
2018-05-29T05:31:16.343Z,46.43
2018-05-29T05:31:47.973Z,44.58
2018-05-29T05:32:20.515Z,43.87
2018-05-29T05:32:52.161Z,42.08
2018-05-29T05:33:23.825Z,47.15
2018-05-29T05:33:55.493Z,42.08
2018-05-29T05:34:27.155Z,46.97
2018-05-29T05:34:58.789Z,42.15
2018-05-29T05:35:30.433Z,41.25
2018-05-29T05:36:02.105Z,42.62
2018-05-29T05:36:33.762Z,42.72
2018-05-29T05:37:05.411Z,40.10
2018-05-29T05:37:37.031Z,42.80
2018-05-29T05:38:08.693Z,43.15
2018-05-29T05:38:40.363Z,40.63
2018-05-29T05:39:12.365Z,42.67
2018-05-29T05:39:44.031Z,41.78
2018-05-29T05:40:15.681Z,37.78
2018-05-29T05:40:47.309Z,39.60
2018-05-29T05:41:18.935Z,39.10
2018-05-29T05:41:50.571Z,39.70
2018-05-29T05:42:22.245Z,42.22
2018-05-29T05:42:53.887Z,40.10
2018-05-29T05:43:25.522Z,40.90
2018-05-29T05:43:57.151Z,38.80
2018-05-29T05:44:28.815Z,38.00
2018-05-29T05:45:00.473Z,40.65
2018-05-29T05:45:32.120Z,41.45
2018-05-29T05:46:03.815Z,44.15
2018-05-29T05:46:35.464Z,38.88
2018-05-29T05:47:07.109Z,38.17
2018-05-29T05:47:38.769Z,41.03
2018-05-29T05:48:10.403Z,41.33
2018-05-29T05:48:42.054Z,38.83
2018-05-29T05:49:13.681Z,39.88
2018-05-29T05:49:45.315Z,41.78
2018-05-29T05:50:16.949Z,39.20
2018-05-29T05:50:48.621Z,39.92
2018-05-29T05:51:20.261Z,38.08
2018-05-29T05:51:51.911Z,35.67
2018-05-29T05:52:23.596Z,36.72
2018-05-29T05:52:55.239Z,36.58
2018-05-29T05:53:26.883Z,39.35
2018-05-29T05:53:58.522Z,42.05
2018-05-29T05:54:30.149Z,40.72
2018-05-29T05:55:01.809Z,41.50
2018-05-29T05:55:33.459Z,43.20
2018-05-29T05:56:05.147Z,41.78
2018-05-29T05:56:36.796Z,39.50
2018-05-29T05:57:08.417Z,39.50
2018-05-29T05:57:40.051Z,36.60
2018-05-29T05:58:11.797Z,42.10
2018-05-29T05:58:43.382Z,38.42
2018-05-29T05:59:15.013Z,39.75
2018-05-29T05:59:46.675Z,37.95
2018-05-29T06:00:18.347Z,38.67
2018-05-29T06:00:49.988Z,40.63
2018-05-29T06:01:21.650Z,40.33
2018-05-29T06:01:53.293Z,38.22
2018-05-29T06:02:24.953Z,39.55
2018-05-29T06:02:56.623Z,38.75
2018-05-29T06:03:28.260Z,35.47
2018-05-29T06:03:59.891Z,37.95
2018-05-29T06:04:31.550Z,37.63
2018-05-29T06:05:03.255Z,33.45
2018-05-29T06:05:34.927Z,40.58
2018-05-29T06:06:06.579Z,35.40
2018-05-29T06:06:38.253Z,39.40
2018-05-29T06:07:10.783Z,36.15
2018-05-29T06:07:42.419Z,32.67
2018-05-29T06:08:14.045Z,36.45
2018-05-29T06:08:45.715Z,36.97
2018-05-29T06:09:17.354Z,34.53
2018-05-29T06:09:48.995Z,36.53
2018-05-29T06:10:20.682Z,33.85
2018-05-29T06:10:52.413Z,34.13
2018-05-29T06:11:24.080Z,36.85
2018-05-29T06:11:55.709Z,36.35
2018-05-29T06:12:27.377Z,34.38
2018-05-29T06:12:59.039Z,32.25
2018-05-29T06:13:30.807Z,35.47
2018-05-29T06:14:02.482Z,32.88
2018-05-29T06:14:34.141Z,31.77
2018-05-29T06:15:05.774Z,33.45
2018-05-29T06:15:37.426Z,33.38
2018-05-29T06:16:09.090Z,32.35
2018-05-29T06:16:40.722Z,35.17
2018-05-29T06:17:12.378Z,32.28
2018-05-29T06:17:44.022Z,33.30
2018-05-29T06:18:15.660Z,40.90
2018-05-29T06:18:47.297Z,32.78
2018-05-29T06:19:18.953Z,33.03
2018-05-29T06:19:50.595Z,33.50
2018-05-29T06:20:22.274Z,28.98
2018-05-29T06:20:53.946Z,29.02
2018-05-29T06:21:25.617Z,28.87
2018-05-29T06:21:57.266Z,28.42
2018-05-29T06:22:28.921Z,30.23
2018-05-29T06:23:00.594Z,29.80
2018-05-29T06:23:32.240Z,29.85
2018-05-29T06:24:03.954Z,30.80
2018-05-29T06:24:35.608Z,29.75
2018-05-29T06:25:07.279Z,31.65
2018-05-29T06:25:38.916Z,30.23
2018-05-29T06:26:10.565Z,27.58
2018-05-29T06:26:42.204Z,28.02
2018-05-29T06:27:13.880Z,27.02
2018-05-29T06:27:45.554Z,28.23
2018-05-29T06:28:17.970Z,27.42
2018-05-29T06:28:49.626Z,26.85
2018-05-29T06:29:21.272Z,26.85
2018-05-29T06:29:54.000Z,29.52
2018-05-29T06:30:25.654Z,26.70
2018-05-29T06:30:57.304Z,28.95
2018-05-29T06:31:28.948Z,26.10
2018-05-29T06:32:00.600Z,25.85
2018-05-29T06:32:32.262Z,27.60
2018-05-29T06:33:03.944Z,26.92
2018-05-29T06:33:35.576Z,25.73
2018-05-29T06:34:07.238Z,26.75
2018-05-29T06:34:38.858Z,29.30
2018-05-29T06:35:10.614Z,26.70
2018-05-29T06:35:42.248Z,27.35
2018-05-29T06:36:13.935Z,29.27
2018-05-29T06:36:45.580Z,26.85
2018-05-29T06:37:17.216Z,27.17
2018-05-29T06:37:48.869Z,28.62
2018-05-29T06:38:20.579Z,27.87
2018-05-29T06:38:52.238Z,25.65
2018-05-29T06:39:23.906Z,27.37
2018-05-29T06:40:10.532Z,24.73
2018-05-29T06:40:42.186Z,26.15
2018-05-29T06:41:13.878Z,25.08
2018-05-29T06:41:45.585Z,29.70
2018-05-29T06:42:17.218Z,25.90
2018-05-29T06:42:48.860Z,28.85
2018-05-29T06:43:20.524Z,28.60
2018-05-29T06:43:52.180Z,27.98
2018-05-29T06:44:23.816Z,26.85
2018-05-29T06:44:55.463Z,27.77
2018-05-29T06:45:27.112Z,24.55
2018-05-29T06:45:58.752Z,25.45
2018-05-29T06:46:30.389Z,29.37
2018-05-29T06:47:02.032Z,27.37
2018-05-29T06:47:33.678Z,29.52
2018-05-29T06:48:05.322Z,25.23
2018-05-29T06:48:36.952Z,31.90
2018-05-29T06:49:08.598Z,25.90
2018-05-29T06:49:40.266Z,27.25
2018-05-29T06:50:12.106Z,27.50
2018-05-29T06:50:43.754Z,28.55
2018-05-29T06:51:15.387Z,27.10
2018-05-29T06:51:47.039Z,25.65
2018-05-29T06:52:18.667Z,27.92
2018-05-29T06:52:50.315Z,25.77
2018-05-29T06:53:21.962Z,25.40
2018-05-29T06:53:53.618Z,25.42
2018-05-29T06:54:25.840Z,30.55
2018-05-29T06:54:57.464Z,24.23
2018-05-29T06:55:30.133Z,26.17
2018-05-29T06:56:01.746Z,24.35
2018-05-29T07:01:22.501Z,23.77
2018-05-29T07:01:54.150Z,25.52
2018-05-29T07:02:25.790Z,24.67
2018-05-29T07:02:57.444Z,26.73
2018-05-29T07:03:29.111Z,23.58
2018-05-29T07:04:00.811Z,24.50